Time;durP1;ratioP1;P1;durP2;ratioP2;P2;SDS_P1;SDS_P2;PMS_P1;PMS_P2;Temp;Humidity;BMP_temperature;BMP_pressure;BME280_temperature;BME280_humidity;BME280_pressure;Samples;Min_cycle;Max_cycle;Signal;HPM_P1;HPM_P2
2021/04/05 00:01:09;;;;;;;33.10;25.43;;;;;;;4.62;71.82;99842.69;5051856;28;20699;-81
2021/04/05 00:03:36;;;;;;;35.57;24.40;;;;;;;4.70;71.41;99842.66;5052608;28;20233;-82
2021/04/05 00:06:02;;;;;;;35.77;26.43;;;;;;;4.52;72.14;99823.75;5056515;28;20205;-82
2021/04/05 00:08:27;;;;;;;33.90;24.63;;;;;;;4.45;72.21;99831.53;5053333;28;20579;-82
2021/04/05 00:10:56;;;;;;;35.37;24.83;;;;;;;4.48;72.34;99832.41;5056706;28;20262;-82
2021/04/05 00:13:26;;;;;;;37.63;25.27;;;;;;;4.40;73.23;99829.00;5053926;28;20205;-82
2021/04/05 00:15:52;;;;;;;35.97;23.53;;;;;;;4.47;72.40;99810.00;5056286;28;20205;-82
2021/04/05 00:18:18;;;;;;;35.80;24.63;;;;;;;4.49;72.72;99815.16;5053632;28;20221;-82
2021/04/05 00:20:50;;;;;;;31.80;22.73;;;;;;;4.44;72.38;99797.09;5050176;28;20237;-82
2021/04/05 00:23:16;;;;;;;33.33;23.67;;;;;;;4.44;72.96;99797.09;5054039;28;20197;-83
2021/04/05 00:25:41;;;;;;;33.30;24.43;;;;;;;4.44;72.98;99773.84;5054300;28;20203;-82
2021/04/05 00:28:07;;;;;;;36.10;24.20;;;;;;;4.51;72.90;99761.75;5055008;28;20212;-82
2021/04/05 00:30:35;;;;;;;33.27;24.67;;;;;;;4.55;72.89;99766.88;5058029;28;20312;-82
2021/04/05 00:33:02;;;;;;;34.57;23.77;;;;;;;4.54;72.89;99748.81;5052882;28;20204;-82
2021/04/05 00:35:30;;;;;;;30.83;22.40;;;;;;;4.54;72.52;99744.50;5056483;28;20206;-83
2021/04/05 00:37:58;;;;;;;35.93;23.40;;;;;;;4.62;72.87;99731.53;5053935;28;20224;-81
2021/04/05 00:40:28;;;;;;;33.47;21.83;;;;;;;4.60;72.19;99719.47;5055606;28;20576;-83
2021/04/05 00:42:54;;;;;;;34.60;23.13;;;;;;;4.52;72.73;99706.59;5041215;28;20198;-82
2021/04/05 00:45:21;;;;;;;33.10;22.43;;;;;;;4.57;72.77;99691.91;5041515;28;20587;-82
2021/04/05 00:47:48;;;;;;;31.53;22.03;;;;;;;4.54;72.45;99700.56;5056948;28;20218;-82
2021/04/05 00:50:18;;;;;;;35.37;22.83;;;;;;;4.56;72.60;99672.13;5055948;28;20222;-82
2021/04/05 00:52:44;;;;;;;30.57;21.97;;;;;;;4.57;72.80;99689.34;5054485;28;20202;-83
2021/04/05 00:55:13;;;;;;;31.13;22.80;;;;;;;4.59;72.29;99679.84;5059456;28;20226;-84
2021/04/05 00:57:38;;;;;;;30.97;22.67;;;;;;;4.57;72.93;99674.69;5050964;28;20710;-84
2021/04/05 01:00:07;;;;;;;31.63;21.17;;;;;;;4.66;72.70;99676.38;5061025;28;20228;-83
2021/04/05 01:02:35;;;;;;;30.43;22.07;;;;;;;4.70;72.74;99670.28;5052159;28;20209;-82
2021/04/05 01:05:01;;;;;;;40.47;22.77;;;;;;;4.70;72.83;99659.97;5060627;28;20209;-82
2021/04/05 01:07:28;;;;;;;30.83;22.80;;;;;;;4.75;72.25;99658.19;5047380;28;20218;-83
2021/04/05 01:09:53;;;;;;;38.40;22.30;;;;;;;4.80;72.22;99649.53;5022247;28;20210;-83
2021/04/05 01:12:20;;;;;;;31.23;22.57;;;;;;;4.77;71.85;99634.91;5044946;28;20222;-83
2021/04/05 01:14:46;;;;;;;30.00;22.20;;;;;;;4.68;72.08;99620.34;5058798;28;20202;-83
2021/04/05 01:17:12;;;;;;;31.07;23.87;;;;;;;4.75;72.33;99616.81;5046151;28;20232;-82
2021/04/05 01:19:38;;;;;;;35.97;23.53;;;;;;;4.71;72.68;99607.38;5050613;28;20201;-83
2021/04/05 01:22:06;;;;;;;32.70;22.37;;;;;;;4.72;72.52;99601.34;5050390;28;20260;-83
2021/04/05 01:24:32;;;;;;;34.20;23.50;;;;;;;4.71;72.50;99602.19;5034074;28;20595;-82
2021/04/05 01:26:58;;;;;;;35.10;24.03;;;;;;;4.74;72.67;99589.25;5054161;28;20216;-84
2021/04/05 01:29:24;;;;;;;34.77;23.33;;;;;;;4.68;72.61;99583.31;5044436;28;20931;-82
2021/04/05 01:31:50;;;;;;;32.10;23.57;;;;;;;4.76;72.11;99582.34;5048619;28;20222;-82
2021/04/05 01:34:16;;;;;;;33.60;22.13;;;;;;;4.81;72.03;99576.28;5055206;28;20202;-82
2021/04/05 01:36:42;;;;;;;42.10;23.80;;;;;;;4.79;72.11;99571.09;5051629;28;20215;-82
2021/04/05 01:39:08;;;;;;;32.03;24.40;;;;;;;4.62;72.51;99550.59;5052507;28;20233;-82
2021/04/05 01:41:34;;;;;;;33.97;23.83;;;;;;;4.61;72.42;99548.03;5052909;28;20248;-81
2021/04/05 01:44:01;;;;;;;34.37;23.13;;;;;;;4.69;72.46;99541.91;5053247;28;20229;-82
2021/04/05 01:46:29;;;;;;;27.17;21.10;;;;;;;4.77;71.91;99536.66;5053611;28;20229;-83
2021/04/05 01:48:58;;;;;;;30.90;22.53;;;;;;;4.74;71.78;99524.63;5051061;28;20198;-84
2021/04/05 01:51:24;;;;;;;39.37;23.33;;;;;;;4.78;71.78;99503.03;5050096;28;20225;-84
2021/04/05 01:53:52;;;;;;;34.87;22.43;;;;;;;4.78;71.68;99500.47;5050948;28;20205;-82
2021/04/05 01:56:20;;;;;;;31.77;22.57;;;;;;;4.89;71.45;99478.78;5050271;28;20225;-82
2021/04/05 01:58:48;;;;;;;30.27;22.17;;;;;;;5.00;71.15;99469.19;5050624;28;20221;-82
2021/04/05 02:01:17;;;;;;;32.93;22.30;;;;;;;5.04;71.47;99451.91;5053451;28;20222;-82
2021/04/05 02:03:44;;;;;;;29.43;22.20;;;;;;;5.09;70.68;99435.44;5050784;28;20202;-82
2021/04/05 02:06:13;;;;;;;31.37;22.13;;;;;;;5.06;70.81;99437.22;5053341;28;20201;-82
2021/04/05 02:08:39;;;;;;;37.00;23.13;;;;;;;5.03;71.05;99421.75;5050398;28;20197;-82
2021/04/05 02:11:08;;;;;;;29.07;21.33;;;;;;;4.92;71.59;99414.13;5050550;28;20225;-82
2021/04/05 02:13:35;;;;;;;32.87;21.80;;;;;;;4.88;71.95;99415.88;5047215;28;20213;-82
2021/04/05 02:16:01;;;;;;;28.20;21.20;;;;;;;4.87;72.02;99405.56;5050031;28;20202;-82
2021/04/05 02:18:27;;;;;;;28.03;22.33;;;;;;;4.90;72.20;99406.38;5047117;28;20252;-81
2021/04/05 02:20:54;;;;;;;31.90;21.57;;;;;;;4.93;71.91;99405.47;5041480;28;20707;-81
2021/04/05 02:23:23;;;;;;;30.63;21.43;;;;;;;4.91;72.14;99412.41;5051798;28;20413;-81
2021/04/05 02:26:07;;;;;;;31.03;21.80;;;;;;;4.95;72.08;99396.81;5051195;28;20205;-82
2021/04/05 02:28:40;;;;;;;31.93;21.73;;;;;;;4.89;72.00;99380.53;5050945;28;20194;-82
2021/04/05 02:31:07;;;;;;;24.47;20.57;;;;;;;4.86;72.41;99380.59;5052833;28;20590;-82
2021/04/05 02:33:36;;;;;;;32.63;20.97;;;;;;;4.90;72.18;99364.16;5050975;28;20206;-84
2021/04/05 02:36:02;;;;;;;26.83;21.13;;;;;;;4.91;72.57;99356.38;5052667;28;20206;-82
2021/04/05 02:38:28;;;;;;;32.70;21.93;;;;;;;4.99;72.22;99358.84;5050685;28;20218;-82
2021/04/05 02:40:54;;;;;;;26.13;20.40;;;;;;;4.97;71.91;99361.47;5054121;28;20224;-82
2021/04/05 02:43:20;;;;;;;30.03;20.40;;;;;;;4.96;72.38;99358.91;5051000;28;20239;-84
2021/04/05 02:45:48;;;;;;;26.90;20.17;;;;;;;4.95;72.33;99358.03;5049641;28;20203;-83
2021/04/05 02:48:15;;;;;;;28.47;21.73;;;;;;;4.82;72.97;99343.59;5048841;28;20198;-82
2021/04/05 02:50:41;;;;;;;24.37;19.53;;;;;;;4.87;72.56;99331.44;5050478;28;20276;-82
2021/04/05 02:53:09;;;;;;;30.73;21.30;;;;;;;4.85;72.81;99320.25;5049961;28;20209;-83
2021/04/05 02:55:35;;;;;;;27.43;19.83;;;;;;;4.86;73.12;99318.53;5053407;28;20198;-82
2021/04/05 02:58:05;;;;;;;28.07;20.03;;;;;;;4.88;72.86;99314.22;5049005;28;20225;-83
2021/04/05 03:00:31;;;;;;;28.63;20.03;;;;;;;4.95;72.75;99297.72;5051744;28;20603;-82
2021/04/05 03:02:58;;;;;;;27.37;19.73;;;;;;;4.95;72.63;99285.63;5048793;28;20201;-84
2021/04/05 03:05:26;;;;;;;24.73;20.67;;;;;;;4.91;73.17;99278.78;5052919;28;20209;-82
2021/04/05 03:07:52;;;;;;;30.83;20.13;;;;;;;4.90;73.02;99286.59;5049904;28;20194;-82
2021/04/05 03:10:21;;;;;;;28.73;19.70;;;;;;;4.98;72.62;99284.75;5060967;28;20238;-87
2021/04/05 03:12:50;;;;;;;24.23;20.07;;;;;;;5.00;73.15;99279.56;5068878;28;20193;-88
2021/04/05 03:15:17;;;;;;;34.37;22.03;;;;;;;5.00;73.15;99271.81;5075326;28;20182;-87
2021/04/05 03:17:43;;;;;;;26.37;20.87;;;;;;;5.03;72.92;99277.75;5059263;28;20303;-81
2021/04/05 03:20:14;;;;;;;37.00;21.10;;;;;;;5.09;72.82;99276.81;5056232;28;20237;-82
2021/04/05 03:22:41;;;;;;;29.33;20.30;;;;;;;5.15;72.68;99275.00;5019924;28;20213;-82
2021/04/05 03:25:14;;;;;;;36.03;21.37;;;;;;;5.15;72.40;99279.31;5021638;28;20203;-82
2021/04/05 03:27:40;;;;;;;26.70;21.00;;;;;;;5.22;72.56;99274.91;5049216;28;20197;-84
2021/04/05 03:30:08;;;;;;;28.33;21.83;;;;;;;5.20;72.54;99271.50;5056546;28;20221;-84
2021/04/05 03:32:38;;;;;;;31.43;21.10;;;;;;;5.19;72.59;99260.25;5047200;28;20221;-83
2021/04/05 03:35:06;;;;;;;31.67;21.77;;;;;;;5.21;72.73;99268.84;5055997;28;20205;-82
2021/04/05 03:37:34;;;;;;;34.57;22.10;;;;;;;5.26;72.52;99254.13;5046949;28;20222;-83
2021/04/05 03:40:00;;;;;;;33.30;21.83;;;;;;;5.29;72.43;99250.63;5038411;28;20617;-85
2021/04/05 03:42:34;;;;;;;33.00;20.73;;;;;;;5.30;72.51;99257.53;5043334;28;20270;-84
2021/04/05 03:45:05;;;;;;;35.00;20.97;;;;;;;5.33;72.74;99260.03;5020929;28;20560;-83
2021/04/05 03:47:40;;;;;;;31.43;22.77;;;;;;;5.28;72.97;99242.00;5048067;28;20206;-83
2021/04/05 03:50:15;;;;;;;30.17;22.23;;;;;;;5.30;73.21;99242.84;5052489;28;20279;-82
2021/04/05 03:52:48;;;;;;;28.20;23.67;;;;;;;5.33;73.06;99216.94;5047497;28;20189;-84
2021/04/05 03:55:16;;;;;;;33.37;20.00;;;;;;;5.38;73.01;99196.97;5054870;28;20213;-84
2021/04/05 03:57:48;;;;;;;32.80;23.43;;;;;;;5.43;73.15;99204.69;5048614;28;20225;-83
2021/04/05 04:00:18;;;;;;;29.30;22.57;;;;;;;5.42;73.05;99190.03;5054327;28;20222;-84
2021/04/05 04:02:48;;;;;;;32.80;25.23;;;;;;;5.44;73.46;99187.41;5048737;28;20209;-82
2021/04/05 04:05:20;;;;;;;29.67;24.07;;;;;;;5.45;73.24;99179.63;5054312;28;20631;-82
2021/04/05 04:07:49;;;;;;;31.13;24.20;;;;;;;5.45;73.49;99179.63;5050234;28;20244;-84
2021/04/05 04:10:18;;;;;;;27.23;21.73;;;;;;;5.46;73.74;99189.09;5054444;28;20225;-84
2021/04/05 04:12:47;;;;;;;36.63;23.43;;;;;;;5.45;74.06;99176.16;5048293;28;20700;-84
2021/04/05 04:15:15;;;;;;;34.50;23.43;;;;;;;5.52;73.52;99164.84;5055826;28;20198;-83
2021/04/05 04:17:42;;;;;;;26.87;22.97;;;;;;;5.50;73.40;99157.09;5049285;28;20248;-83
2021/04/05 04:20:11;;;;;;;36.20;24.73;;;;;;;5.47;73.74;99148.53;5053669;28;20225;-84
2021/04/05 04:22:38;;;;;;;30.67;22.83;;;;;;;5.45;73.87;99140.81;5047837;28;20571;-81
2021/04/05 04:25:07;;;;;;;38.87;25.87;;;;;;;5.41;74.36;99143.47;5057359;28;20205;-84
2021/04/05 04:27:33;;;;;;;31.20;23.97;;;;;;;5.45;74.35;99130.47;5048107;28;20210;-83
2021/04/05 04:29:59;;;;;;;32.37;23.23;;;;;;;5.48;74.02;99116.59;5058357;28;20248;-83
2021/04/05 04:32:26;;;;;;;39.67;23.40;;;;;;;5.50;74.04;99126.03;5047848;28;20198;-84
2021/04/05 04:34:52;;;;;;;39.27;23.87;;;;;;;5.51;73.86;99108.75;5057916;28;20206;-83
2021/04/05 04:37:18;;;;;;;33.33;23.23;;;;;;;5.56;73.97;99122.47;5046984;28;20213;-83
2021/04/05 04:39:45;;;;;;;33.70;24.20;;;;;;;5.51;73.70;99112.22;5057830;28;20221;-84
2021/04/05 04:42:12;;;;;;;30.53;24.60;;;;;;;5.55;74.00;99119.03;5047989;28;20201;-84
2021/04/05 04:44:39;;;;;;;34.57;25.30;;;;;;;5.53;73.92;99096.63;5057770;28;20212;-83
2021/04/05 04:47:06;;;;;;;36.73;24.93;;;;;;;5.56;73.91;99123.31;5049550;28;20230;-84
2021/04/05 04:49:32;;;;;;;38.43;24.57;;;;;;;5.58;74.02;99100.00;5058689;28;20209;-84
2021/04/05 04:51:58;;;;;;;33.10;22.70;;;;;;;5.56;73.72;99092.25;5051168;28;20237;-82
2021/04/05 04:54:25;;;;;;;29.63;23.43;;;;;;;5.61;73.52;99088.72;5058593;28;20202;-83
2021/04/05 04:56:51;;;;;;;34.60;24.37;;;;;;;5.61;73.91;99092.19;5055093;28;20260;-83
2021/04/05 04:59:18;;;;;;;34.40;24.63;;;;;;;5.57;73.95;99075.00;5062996;28;20225;-83
2021/04/05 05:01:45;;;;;;;36.60;25.90;;;;;;;5.61;74.00;99073.19;5061805;28;20221;-82
2021/04/05 05:04:16;;;;;;;30.73;23.27;;;;;;;5.56;73.91;99074.13;5061795;28;20201;-83
2021/04/05 05:06:43;;;;;;;41.83;26.63;;;;;;;5.61;74.02;99073.19;5057286;28;20212;-82
2021/04/05 05:09:09;;;;;;;36.57;25.40;;;;;;;5.58;74.11;99059.44;5063646;28;20224;-82
2021/04/05 05:11:35;;;;;;;32.77;25.60;;;;;;;5.59;74.42;99068.06;5059944;28;20868;-82
2021/04/05 05:14:02;;;;;;;32.60;24.33;;;;;;;5.64;73.87;99060.19;5049743;28;20208;-82
2021/04/05 05:16:30;;;;;;;34.67;25.07;;;;;;;5.65;73.52;99047.22;5050610;28;20347;-84
2021/04/05 05:18:57;;;;;;;37.87;24.53;;;;;;;5.63;74.07;99048.13;5041758;28;20224;-83
2021/04/05 05:21:29;;;;;;;37.77;23.93;;;;;;;5.66;73.83;99040.31;5071844;22;20233;-82
2021/04/05 05:24:01;;;;;;;32.70;24.50;;;;;;;5.65;74.29;99036.88;5049943;28;20216;-80
2021/04/05 05:26:28;;;;;;;36.90;24.73;;;;;;;5.67;74.20;99039.41;5071922;28;20263;-81
2021/04/05 05:28:57;;;;;;;33.23;23.53;;;;;;;5.62;74.55;99052.47;5067561;28;20201;-80
2021/04/05 05:31:23;;;;;;;30.57;24.40;;;;;;;5.56;75.18;99044.81;5060027;28;20259;-80
2021/04/05 05:33:50;;;;;;;26.00;23.27;;;;;;;5.57;75.56;99029.28;5063351;28;20217;-81
2021/04/05 05:36:18;;;;;;;35.93;23.43;;;;;;;5.56;75.83;99032.72;5070615;28;20227;-80
2021/04/05 05:38:44;;;;;;;36.33;25.33;;;;;;;5.52;76.70;99025.91;5064108;28;20232;-79
2021/04/05 05:41:19;;;;;;;30.53;23.77;;;;;;;5.51;77.56;99024.22;5069742;28;20605;-80
2021/04/05 05:43:47;;;;;;;33.90;22.73;;;;;;;5.45;77.70;99031.25;5063510;28;20252;-80
2021/04/05 05:46:20;;;;;;;34.17;23.77;;;;;;;5.43;77.99;99025.25;5070065;28;20200;-80
2021/04/05 05:49:00;;;;;;;36.30;24.23;;;;;;;5.40;79.21;99028.78;5060251;28;20212;-80
2021/04/05 05:51:40;;;;;;;30.13;25.03;;;;;;;5.30;80.70;99019.50;5075229;28;20196;-81
2021/04/05 05:54:16;;;;;;;38.43;25.73;;;;;;;5.25;81.53;99031.66;5055287;28;20197;-81
2021/04/05 05:56:44;;;;;;;36.83;25.73;;;;;;;5.20;82.28;99005.06;5052276;28;20205;-82
2021/04/05 05:59:18;;;;;;;32.73;26.47;;;;;;;5.15;82.76;98999.94;5047357;28;20228;-81
2021/04/05 06:01:54;;;;;;;37.70;26.37;;;;;;;5.08;83.45;98982.88;5047573;28;20287;-81
2021/04/05 06:04:49;;;;;;;46.27;27.60;;;;;;;5.04;84.43;98982.06;5051177;28;20280;-81
2021/04/05 06:07:23;;;;;;;37.37;27.30;;;;;;;5.03;84.46;98990.69;5038358;28;20205;-80
2021/04/05 06:10:03;;;;;;;39.50;26.33;;;;;;;5.01;85.11;98995.06;5054891;28;20203;-81
2021/04/05 06:12:40;;;;;;;40.60;27.07;;;;;;;5.05;85.04;98975.16;5043826;28;20261;-78
2021/04/05 06:15:15;;;;;;;33.13;26.97;;;;;;;5.07;84.84;98965.63;5050942;28;20194;-80
2021/04/05 06:18:04;;;;;;;35.77;25.63;;;;;;;5.06;85.59;98969.13;5046539;28;20323;-80
2021/04/05 06:20:37;;;;;;;42.90;26.50;;;;;;;5.02;85.70;98962.31;5050526;28;20221;-78
2021/04/05 06:23:36;;;;;;;34.67;25.13;;;;;;;5.01;85.69;98974.38;5047949;28;20382;-79
2021/04/05 06:26:04;;;;;;;39.97;25.40;;;;;;;5.00;85.55;98964.91;5046468;28;20195;-78
2021/04/05 06:28:48;;;;;;;32.37;23.93;;;;;;;4.95;85.66;98966.72;5049195;28;20626;-78
2021/04/05 06:31:28;;;;;;;33.87;25.70;;;;;;;5.01;85.95;98961.44;5051389;28;20198;-79
2021/04/05 06:33:55;;;;;;;25.07;20.17;;;;;;;4.96;86.18;98951.19;5052894;28;20200;-78
2021/04/05 06:36:35;;;;;;;26.17;19.93;;;;;;;4.96;85.95;98963.28;5050363;28;20228;-78
2021/04/05 06:39:04;;;;;;;33.27;23.53;;;;;;;4.94;86.27;98949.53;5052252;28;20217;-79
2021/04/05 06:41:58;;;;;;;30.67;23.87;;;;;;;4.89;86.39;98944.44;5046789;28;20209;-78
2021/04/05 06:44:46;;;;;;;25.63;22.07;;;;;;;4.86;86.84;98935.91;5049980;28;20213;-78
2021/04/05 06:47:32;;;;;;;31.53;23.93;;;;;;;4.89;86.83;98934.09;5042221;28;20226;-78
2021/04/05 06:50:25;;;;;;;32.73;23.53;;;;;;;4.87;86.88;98938.44;5050513;28;20725;-78
2021/04/05 06:53:15;;;;;;;24.77;22.27;;;;;;;4.85;86.86;98934.19;5049809;28;20225;-78
2021/04/05 06:55:42;;;;;;;26.53;22.93;;;;;;;4.86;87.29;98930.75;5051390;28;20197;-78
2021/04/05 06:58:41;;;;;;;25.00;22.13;;;;;;;4.89;87.12;98917.75;5046191;28;20218;-77
2021/04/05 07:01:19;;;;;;;20.67;16.53;;;;;;;4.84;87.32;98919.59;5040905;28;20201;-78
2021/04/05 07:04:17;;;;;;;24.20;21.30;;;;;;;4.90;87.03;98899.63;5047826;28;20217;-78
2021/04/05 07:06:50;;;;;;;32.47;22.10;;;;;;;4.89;86.98;98905.66;5046719;28;20225;-78
2021/04/05 07:09:23;;;;;;;20.43;18.50;;;;;;;4.88;86.93;98903.13;5049645;28;20276;-78
2021/04/05 07:12:08;;;;;;;23.17;20.57;;;;;;;4.94;87.42;98905.56;5044760;28;20215;-77
2021/04/05 07:14:41;;;;;;;21.90;19.27;;;;;;;4.87;87.47;98906.56;5050565;28;20443;-77
2021/04/05 07:17:13;;;;;;;24.17;21.53;;;;;;;4.84;87.75;98902.31;5042383;28;20209;-78
2021/04/05 07:20:12;;;;;;;26.70;20.27;;;;;;;4.74;88.18;98914.59;5051649;28;20229;-78
2021/04/05 07:22:56;;;;;;;23.83;21.07;;;;;;;4.76;88.64;98919.72;5015674;28;20283;-77
2021/04/05 07:25:27;;;;;;;22.77;20.30;;;;;;;4.80;89.02;98931.72;5049871;28;20218;-78
2021/04/05 07:28:03;;;;;;;21.63;19.67;;;;;;;4.71;89.37;98922.38;5047030;28;20216;-79
2021/04/05 07:30:37;;;;;;;20.40;18.50;;;;;;;4.66;89.18;98933.69;5052349;28;20239;-79
2021/04/05 07:33:12;;;;;;;25.80;22.30;;;;;;;4.62;89.75;98938.09;5049004;28;20310;-77
2021/04/05 07:35:47;;;;;;;28.33;22.20;;;;;;;4.67;90.19;98971.59;5051755;28;20209;-77
2021/04/05 07:38:22;;;;;;;14.27;11.03;;;;;;;4.20;89.38;99027.50;5048671;28;20233;-77
2021/04/05 07:40:55;;;;;;;3.77;2.47;;;;;;;3.66;87.96;99042.06;5053204;28;20202;-77
2021/04/05 07:43:31;;;;;;;2.13;1.60;;;;;;;3.41;88.33;99048.41;5050227;28;20222;-79
2021/04/05 07:46:16;;;;;;;0.80;0.80;;;;;;;3.13;87.94;99036.72;5048438;28;20253;-79
2021/04/05 07:48:50;;;;;;;0.70;0.70;;;;;;;3.01;88.86;99041.97;5048795;28;20206;-79
2021/04/05 07:51:19;;;;;;;1.00;0.60;;;;;;;3.03;89.29;99058.28;5047221;28;20219;-79
2021/04/05 07:53:51;;;;;;;0.80;0.60;;;;;;;2.98;89.18;99060.06;5051168;28;20233;-79
2021/04/05 07:56:25;;;;;;;1.00;0.50;;;;;;;3.01;88.89;99064.34;5049761;28;20792;-79
2021/04/05 07:59:03;;;;;;;1.40;0.77;;;;;;;3.00;88.25;99078.13;5051320;28;20209;-78
2021/04/05 08:01:39;;;;;;;1.33;0.57;;;;;;;2.98;88.57;99076.38;5046575;28;20660;-78
2021/04/05 08:04:10;;;;;;;0.93;0.60;;;;;;;2.75;89.16;99091.22;5049597;28;20193;-78
2021/04/05 08:06:45;;;;;;;0.80;0.50;;;;;;;2.66;89.45;99088.75;5047108;28;20239;-80
2021/04/05 08:09:14;;;;;;;1.83;0.80;;;;;;;2.69;89.75;99086.13;5049897;28;20199;-78
2021/04/05 08:12:05;;;;;;;1.70;0.83;;;;;;;2.79;90.00;99087.75;5047342;28;20201;-79
2021/04/05 08:14:40;;;;;;;2.10;0.70;;;;;;;2.69;89.41;99097.28;5048855;28;20212;-78
2021/04/05 08:17:21;;;;;;;0.40;0.40;;;;;;;2.66;89.64;99096.47;5042466;28;20285;-78
2021/04/05 08:19:56;;;;;;;3.57;0.80;;;;;;;2.57;89.86;99098.22;5052348;28;20246;-79
2021/04/05 08:22:34;;;;;;;0.73;0.63;;;;;;;2.51;90.38;99105.16;5044804;28;20784;-78
2021/04/05 08:25:08;;;;;;;1.63;0.60;;;;;;;2.62;89.88;99134.28;5052352;28;20326;-78
2021/04/05 08:27:48;;;;;;;0.30;0.30;;;;;;;2.44;88.58;99119.81;5050914;28;20215;-78
2021/04/05 08:30:21;;;;;;;0.23;0.23;;;;;;;2.36;88.28;99127.59;5058033;28;20218;-78
2021/04/05 08:32:57;;;;;;;0.87;0.40;;;;;;;2.30;87.10;99113.88;5059186;28;20227;-78
2021/04/05 08:35:43;;;;;;;1.47;0.57;;;;;;;2.37;87.83;99118.13;5054416;28;20823;-79
2021/04/05 08:38:23;;;;;;;1.27;0.50;;;;;;;2.46;87.64;99122.34;5056465;28;20225;-78
2021/04/05 08:40:58;;;;;;;1.57;0.77;;;;;;;2.44;86.94;99114.66;5057548;28;20204;-78
2021/04/05 08:43:37;;;;;;;2.03;0.77;;;;;;;2.47;87.13;99119.78;5054244;28;20222;-78
2021/04/05 08:46:11;;;;;;;2.80;1.03;;;;;;;2.51;87.68;99129.19;5030129;28;20228;-80
2021/04/05 08:48:40;;;;;;;1.13;0.70;;;;;;;2.47;87.66;99134.38;5032378;28;20211;-78
2021/04/05 08:51:11;;;;;;;1.57;0.60;;;;;;;2.50;87.28;99132.66;5052768;28;20552;-78
2021/04/05 08:53:41;;;;;;;2.00;0.90;;;;;;;2.64;87.35;99129.13;5055323;28;21049;-79
2021/04/05 08:56:17;;;;;;;2.03;0.70;;;;;;;2.66;85.57;99135.13;5054827;28;20217;-80
2021/04/05 08:58:50;;;;;;;1.17;0.77;;;;;;;2.78;85.31;99128.13;5057020;28;20675;-78
2021/04/05 09:01:21;;;;;;;1.33;0.70;;;;;;;2.85;85.81;99148.69;5056535;28;20206;-79
2021/04/05 09:03:51;;;;;;;1.00;0.60;;;;;;;2.90;85.66;99150.34;5057647;28;20197;-79
2021/04/05 09:06:25;;;;;;;2.60;0.80;;;;;;;2.84;85.32;99147.84;5051381;28;20213;-80
2021/04/05 09:08:53;;;;;;;3.57;0.57;;;;;;;2.98;85.09;99153.72;5053341;28;20216;-77
2021/04/05 09:11:20;;;;;;;1.03;0.70;;;;;;;2.94;83.85;99144.31;5054437;28;20253;-79
2021/04/05 09:13:50;;;;;;;2.77;0.90;;;;;;;2.99;83.20;99149.41;5056154;28;20707;-79
2021/04/05 09:16:59;;;;;;;1.20;1.10;;;;;;;3.02;84.26;99159.69;5057758;28;20209;-79
2021/04/05 09:19:41;;;;;;;2.97;1.10;;;;;;;2.92;83.73;99165.81;5049364;28;20265;-78
2021/04/05 09:22:52;;;;;;;3.20;1.33;;;;;;;3.01;83.46;99165.72;5045354;28;20443;-77
2021/04/05 09:25:39;;;;;;;1.03;0.90;;;;;;;3.18;83.67;99170.72;5031275;28;20243;-78
2021/04/05 09:28:28;;;;;;;2.63;1.20;;;;;;;3.23;81.67;99168.09;5046868;28;20227;-77
2021/04/05 09:31:15;;;;;;;2.07;1.73;;;;;;;3.13;81.76;99168.19;5049834;28;20262;-79
2021/04/05 09:34:09;;;;;;;2.53;1.57;;;;;;;3.12;80.64;99153.59;5049452;28;20247;-78
2021/04/05 09:36:49;;;;;;;1.13;1.00;;;;;;;3.14;79.99;99162.16;5047707;28;20240;-78
2021/04/05 09:39:35;;;;;;;2.17;0.90;;;;;;;3.14;79.03;99166.47;5049297;28;20221;-77
2021/04/05 09:42:50;;;;;;;2.53;1.30;;;;;;;3.25;79.63;99168.94;5053168;28;20715;-77
2021/04/05 09:45:22;;;;;;;5.13;1.30;;;;;;;3.47;79.50;99167.84;5054843;28;20200;-78
2021/04/05 09:48:12;;;;;;;5.17;1.90;;;;;;;3.45;76.79;99164.44;5061798;28;20201;-77
2021/04/05 09:50:57;;;;;;;1.33;1.00;;;;;;;3.37;76.68;99166.25;5051613;28;20213;-77
2021/04/05 09:53:38;;;;;;;3.60;2.27;;;;;;;3.26;76.34;99171.50;5059757;28;20714;-77
2021/04/05 09:56:09;;;;;;;5.20;1.17;;;;;;;3.22;75.74;99169.81;5060349;28;20204;-77
2021/04/05 09:58:38;;;;;;;1.73;0.80;;;;;;;3.30;77.49;99183.50;5059766;28;20266;-77
2021/04/05 10:01:09;;;;;;;2.20;1.33;;;;;;;3.23;75.25;99174.13;5065411;28;20300;-76
2021/04/05 10:03:41;;;;;;;2.77;1.13;;;;;;;3.18;75.37;99171.56;5060458;28;20282;-78
2021/04/05 10:06:08;;;;;;;6.23;1.30;;;;;;;3.30;77.21;99162.03;5067211;28;20297;-78
2021/04/05 10:08:37;;;;;;;4.37;1.17;;;;;;;3.45;75.52;99168.72;5051526;28;20206;-77
2021/04/05 10:11:05;;;;;;;2.60;1.40;;;;;;;3.50;73.11;99161.81;4351654;28;10000836;-78
2021/04/05 10:13:34;;;;;;;3.37;1.00;;;;;;;3.58;75.68;99167.72;5042766;28;20704;-77
2021/04/05 10:16:01;;;;;;;3.93;1.40;;;;;;;3.70;76.09;99183.06;5046710;28;20288;-79
2021/04/05 10:18:27;;;;;;;1.90;0.90;;;;;;;3.43;77.71;99194.56;5045848;28;20229;-78
2021/04/05 10:20:55;;;;;;;3.03;0.60;;;;;;;2.87;80.60;99208.78;5046884;28;20216;-78
2021/04/05 10:23:24;;;;;;;2.00;0.90;;;;;;;2.83;81.07;99227.72;5043309;28;20269;-78
2021/04/05 10:25:55;;;;;;;2.33;0.70;;;;;;;2.68;80.88;99213.25;5048438;28;20223;-78
2021/04/05 10:28:22;;;;;;;2.63;0.53;;;;;;;2.40;79.96;99221.13;5044938;28;20614;-78
2021/04/05 10:30:54;;;;;;;5.00;0.60;;;;;;;2.14;77.60;99231.53;5049034;28;20217;-76
2021/04/05 10:33:28;;;;;;;2.80;0.53;;;;;;;1.74;77.27;99211.09;5043585;28;20648;-78
2021/04/05 10:35:57;;;;;;;1.07;0.50;;;;;;;1.87;77.38;99219.66;5043514;28;20674;-79
2021/04/05 10:38:24;;;;;;;2.10;1.10;;;;;;;2.15;78.70;99212.69;5044747;28;20235;-78
2021/04/05 10:40:52;;;;;;;2.50;0.90;;;;;;;2.44;76.99;99209.06;5049131;28;20882;-78
2021/04/05 10:43:22;;;;;;;3.53;1.07;;;;;;;2.51;76.10;99268.28;5045757;28;20237;-78
2021/04/05 10:45:56;;;;;;;2.43;0.40;;;;;;;1.18;79.69;99293.47;5050028;28;20207;-78
2021/04/05 10:48:28;;;;;;;0.37;0.30;;;;;;;0.67;81.89;99287.38;5042610;28;20234;-78
2021/04/05 10:50:59;;;;;;;1.33;0.30;;;;;;;0.66;83.82;99302.81;5051630;28;20208;-78
2021/04/05 10:53:27;;;;;;;1.10;0.70;;;;;;;0.84;83.54;99304.56;5044063;28;20242;-77
2021/04/05 10:55:57;;;;;;;0.93;0.50;;;;;;;0.92;83.69;99316.56;5041944;28;20669;-77
2021/04/05 10:58:28;;;;;;;2.70;0.47;;;;;;;1.06;83.71;99319.16;5044530;28;20226;-78
2021/04/05 11:00:58;;;;;;;1.70;0.70;;;;;;;1.05;83.62;99325.16;5045071;28;20204;-77
2021/04/05 11:03:28;;;;;;;0.60;0.60;;;;;;;1.11;83.68;99338.03;5041183;28;20245;-77
2021/04/05 11:05:58;;;;;;;1.43;0.67;;;;;;;1.20;83.94;99334.59;5043369;28;20225;-77
2021/04/05 11:08:27;;;;;;;2.73;0.70;;;;;;;0.99;83.46;99331.16;5041257;28;20207;-78
2021/04/05 11:11:00;;;;;;;1.00;0.50;;;;;;;1.24;80.79;99332.88;5059752;28;20212;-78
2021/04/05 11:13:27;;;;;;;2.93;0.80;;;;;;;1.27;79.17;99326.03;5046158;28;20246;-78
2021/04/05 11:15:54;;;;;;;1.00;0.60;;;;;;;1.48;77.33;99326.91;5042113;28;20201;-79
2021/04/05 11:18:22;;;;;;;4.03;0.73;;;;;;;1.53;75.67;99328.59;5044067;28;20730;-78
2021/04/05 11:20:50;;;;;;;2.27;0.87;;;;;;;1.73;74.81;99322.59;5049550;28;20208;-79
2021/04/05 11:23:19;;;;;;;3.47;0.70;;;;;;;1.89;73.76;99316.56;5046623;28;20242;-78
2021/04/05 11:25:47;;;;;;;2.60;0.90;;;;;;;1.80;71.83;99319.13;5050558;28;20698;-78
2021/04/05 11:28:19;;;;;;;4.13;1.20;;;;;;;1.90;72.56;99323.44;5043453;28;20209;-78
2021/04/05 11:30:48;;;;;;;2.90;1.00;;;;;;;2.12;72.10;99331.06;5046573;28;20227;-78
2021/04/05 11:33:16;;;;;;;5.43;1.67;;;;;;;2.36;73.16;99327.59;5042560;28;20254;-78
2021/04/05 11:35:44;;;;;;;2.50;0.83;;;;;;;2.12;70.60;99338.81;5047039;28;20297;-77
2021/04/05 11:38:12;;;;;;;4.73;0.97;;;;;;;2.15;72.54;99320.78;5042428;28;20205;-78
2021/04/05 11:40:41;;;;;;;3.87;1.00;;;;;;;2.38;72.21;99316.41;5046505;28;20301;-78
2021/04/05 11:43:13;;;;;;;2.40;0.87;;;;;;;2.47;70.60;99322.38;5042279;28;20757;-78
2021/04/05 11:45:42;;;;;;;3.17;1.00;;;;;;;2.55;69.27;99329.22;5047059;28;20201;-78
2021/04/05 11:48:12;;;;;;;3.63;1.27;;;;;;;2.33;69.20;99330.16;5043968;28;20830;-77
2021/04/05 11:50:42;;;;;;;2.53;0.60;;;;;;;2.35;70.31;99339.59;5048430;28;20593;-78
2021/04/05 11:53:10;;;;;;;5.90;1.00;;;;;;;2.17;70.86;99343.09;5042747;28;20255;-78